sensor_id;sensor_type;location;lat;lon;timestamp;P1;durP1;ratioP1;P2;durP2;ratioP2
735;SDS011;352;48.626;9.238;2023-04-06T00:00:03;8.60;;;7.32;;
735;SDS011;352;48.626;9.238;2023-04-06T00:02:32;10.05;;;7.25;;
735;SDS011;352;48.626;9.238;2023-04-06T00:04:59;9.95;;;7.53;;
735;SDS011;352;48.626;9.238;2023-04-06T00:07:27;8.13;;;7.25;;
735;SDS011;352;48.626;9.238;2023-04-06T00:09:54;10.02;;;8.32;;
735;SDS011;352;48.626;9.238;2023-04-06T00:12:21;11.80;;;7.93;;
735;SDS011;352;48.626;9.238;2023-04-06T00:14:48;11.93;;;8.50;;
735;SDS011;352;48.626;9.238;2023-04-06T00:17:16;8.27;;;7.40;;
735;SDS011;352;48.626;9.238;2023-04-06T00:19:43;7.70;;;6.90;;
735;SDS011;352;48.626;9.238;2023-04-06T00:22:10;8.90;;;7.88;;
735;SDS011;352;48.626;9.238;2023-04-06T00:24:37;12.55;;;7.78;;
735;SDS011;352;48.626;9.238;2023-04-06T00:27:05;7.93;;;6.60;;
735;SDS011;352;48.626;9.238;2023-04-06T00:29:32;10.25;;;7.28;;
735;SDS011;352;48.626;9.238;2023-04-06T00:31:59;9.32;;;7.40;;
735;SDS011;352;48.626;9.238;2023-04-06T00:34:27;8.27;;;7.28;;
735;SDS011;352;48.626;9.238;2023-04-06T00:36:53;9.30;;;7.95;;
735;SDS011;352;48.626;9.238;2023-04-06T00:39:20;8.25;;;6.95;;
735;SDS011;352;48.626;9.238;2023-04-06T00:41:49;9.82;;;8.30;;
735;SDS011;352;48.626;9.238;2023-04-06T00:44:17;9.70;;;7.57;;
735;SDS011;352;48.626;9.238;2023-04-06T00:46:45;9.00;;;7.30;;
735;SDS011;352;48.626;9.238;2023-04-06T00:49:12;8.60;;;7.70;;
735;SDS011;352;48.626;9.238;2023-04-06T00:51:40;9.57;;;7.78;;
735;SDS011;352;48.626;9.238;2023-04-06T00:54:07;8.15;;;7.28;;
735;SDS011;352;48.626;9.238;2023-04-06T00:56:34;10.35;;;8.13;;
735;SDS011;352;48.626;9.238;2023-04-06T00:59:01;9.60;;;8.60;;
735;SDS011;352;48.626;9.238;2023-04-06T01:01:28;9.10;;;7.90;;
735;SDS011;352;48.626;9.238;2023-04-06T01:03:57;9.82;;;8.82;;
735;SDS011;352;48.626;9.238;2023-04-06T01:06:24;11.52;;;7.53;;
735;SDS011;352;48.626;9.238;2023-04-06T01:08:52;11.73;;;8.70;;
735;SDS011;352;48.626;9.238;2023-04-06T01:11:19;9.48;;;8.02;;
735;SDS011;352;48.626;9.238;2023-04-06T01:13:46;11.73;;;8.73;;
735;SDS011;352;48.626;9.238;2023-04-06T01:16:13;8.65;;;7.85;;
735;SDS011;352;48.626;9.238;2023-04-06T01:18:40;9.60;;;8.00;;
735;SDS011;352;48.626;9.238;2023-04-06T01:21:08;8.20;;;7.40;;
735;SDS011;352;48.626;9.238;2023-04-06T01:23:41;8.00;;;7.20;;
735;SDS011;352;48.626;9.238;2023-04-06T01:26:09;12.05;;;7.95;;
735;SDS011;352;48.626;9.238;2023-04-06T01:28:36;8.60;;;7.65;;
735;SDS011;352;48.626;9.238;2023-04-06T01:31:03;10.52;;;8.40;;
735;SDS011;352;48.626;9.238;2023-04-06T01:33:30;10.55;;;8.35;;
735;SDS011;352;48.626;9.238;2023-04-06T01:35:57;12.63;;;8.55;;
735;SDS011;352;48.626;9.238;2023-04-06T01:38:24;9.15;;;7.95;;
735;SDS011;352;48.626;9.238;2023-04-06T01:40:53;10.25;;;8.20;;
735;SDS011;352;48.626;9.238;2023-04-06T01:43:20;9.38;;;8.45;;
735;SDS011;352;48.626;9.238;2023-04-06T01:45:47;13.48;;;8.45;;
735;SDS011;352;48.626;9.238;2023-04-06T01:48:14;8.90;;;8.00;;
735;SDS011;352;48.626;9.238;2023-04-06T01:50:41;9.60;;;8.60;;
735;SDS011;352;48.626;9.238;2023-04-06T01:53:08;10.57;;;8.68;;
735;SDS011;352;48.626;9.238;2023-04-06T01:55:35;11.38;;;8.75;;
735;SDS011;352;48.626;9.238;2023-04-06T01:58:03;11.52;;;9.18;;
735;SDS011;352;48.626;9.238;2023-04-06T02:00:29;12.00;;;10.90;;
735;SDS011;352;48.626;9.238;2023-04-06T02:02:57;14.80;;;9.35;;
735;SDS011;352;48.626;9.238;2023-04-06T02:05:24;10.25;;;8.80;;
735;SDS011;352;48.626;9.238;2023-04-06T02:07:51;12.18;;;9.48;;
735;SDS011;352;48.626;9.238;2023-04-06T02:10:18;10.48;;;8.55;;
735;SDS011;352;48.626;9.238;2023-04-06T02:12:45;9.55;;;8.32;;
735;SDS011;352;48.626;9.238;2023-04-06T02:15:13;11.18;;;9.43;;
735;SDS011;352;48.626;9.238;2023-04-06T02:17:40;9.65;;;8.15;;
735;SDS011;352;48.626;9.238;2023-04-06T02:20:07;10.38;;;9.25;;
735;SDS011;352;48.626;9.238;2023-04-06T02:22:35;9.65;;;7.90;;
735;SDS011;352;48.626;9.238;2023-04-06T02:25:02;11.27;;;9.00;;
735;SDS011;352;48.626;9.238;2023-04-06T02:27:29;12.27;;;8.77;;
735;SDS011;352;48.626;9.238;2023-04-06T02:29:55;10.40;;;8.63;;
735;SDS011;352;48.626;9.238;2023-04-06T02:32:23;10.80;;;8.32;;
735;SDS011;352;48.626;9.238;2023-04-06T02:34:50;10.05;;;8.65;;
735;SDS011;352;48.626;9.238;2023-04-06T02:37:17;13.32;;;8.80;;
735;SDS011;352;48.626;9.238;2023-04-06T02:39:44;12.23;;;9.40;;
735;SDS011;352;48.626;9.238;2023-04-06T02:42:11;15.30;;;8.95;;
735;SDS011;352;48.626;9.238;2023-04-06T02:44:40;9.55;;;8.55;;
735;SDS011;352;48.626;9.238;2023-04-06T02:47:07;9.55;;;8.40;;
735;SDS011;352;48.626;9.238;2023-04-06T02:49:35;10.63;;;9.13;;
735;SDS011;352;48.626;9.238;2023-04-06T02:52:02;10.38;;;8.82;;
735;SDS011;352;48.626;9.238;2023-04-06T02:54:29;9.90;;;8.70;;
735;SDS011;352;48.626;9.238;2023-04-06T02:56:56;13.10;;;9.73;;
735;SDS011;352;48.626;9.238;2023-04-06T02:59:23;10.68;;;9.30;;
735;SDS011;352;48.626;9.238;2023-04-06T03:01:50;9.55;;;8.65;;
735;SDS011;352;48.626;9.238;2023-04-06T03:04:17;11.65;;;9.10;;
735;SDS011;352;48.626;9.238;2023-04-06T03:06:48;10.13;;;8.50;;
735;SDS011;352;48.626;9.238;2023-04-06T03:09:14;11.30;;;9.15;;
735;SDS011;352;48.626;9.238;2023-04-06T03:11:41;10.43;;;9.32;;
735;SDS011;352;48.626;9.238;2023-04-06T03:14:08;9.93;;;9.02;;
735;SDS011;352;48.626;9.238;2023-04-06T03:16:35;10.45;;;9.45;;
735;SDS011;352;48.626;9.238;2023-04-06T03:19:02;11.13;;;8.73;;
735;SDS011;352;48.626;9.238;2023-04-06T03:21:29;11.38;;;9.35;;
735;SDS011;352;48.626;9.238;2023-04-06T03:23:57;10.43;;;9.20;;
735;SDS011;352;48.626;9.238;2023-04-06T03:26:23;10.25;;;9.25;;
735;SDS011;352;48.626;9.238;2023-04-06T03:28:50;12.27;;;9.25;;
735;SDS011;352;48.626;9.238;2023-04-06T03:31:17;11.38;;;9.57;;
735;SDS011;352;48.626;9.238;2023-04-06T03:33:44;9.90;;;8.90;;
735;SDS011;352;48.626;9.238;2023-04-06T03:36:11;10.48;;;9.05;;
735;SDS011;352;48.626;9.238;2023-04-06T03:38:38;11.63;;;9.68;;
735;SDS011;352;48.626;9.238;2023-04-06T03:41:06;10.27;;;9.15;;
735;SDS011;352;48.626;9.238;2023-04-06T03:43:32;10.73;;;9.05;;
735;SDS011;352;48.626;9.238;2023-04-06T03:45:59;10.10;;;8.77;;
735;SDS011;352;48.626;9.238;2023-04-06T03:48:26;11.35;;;9.68;;
735;SDS011;352;48.626;9.238;2023-04-06T03:50:53;12.80;;;9.85;;
735;SDS011;352;48.626;9.238;2023-04-06T03:53:19;13.30;;;11.90;;
735;SDS011;352;48.626;9.238;2023-04-06T03:55:46;12.73;;;10.55;;
735;SDS011;352;48.626;9.238;2023-04-06T03:58:14;11.52;;;8.85;;
735;SDS011;352;48.626;9.238;2023-04-06T04:00:41;9.95;;;9.05;;
735;SDS011;352;48.626;9.238;2023-04-06T04:03:08;11.55;;;9.82;;
735;SDS011;352;48.626;9.238;2023-04-06T04:05:35;9.57;;;8.55;;
735;SDS011;352;48.626;9.238;2023-04-06T04:08:01;12.60;;;10.20;;
735;SDS011;352;48.626;9.238;2023-04-06T04:10:28;10.10;;;9.00;;
735;SDS011;352;48.626;9.238;2023-04-06T04:12:55;10.10;;;9.20;;
735;SDS011;352;48.626;9.238;2023-04-06T04:15:23;10.18;;;9.18;;
735;SDS011;352;48.626;9.238;2023-04-06T04:17:50;11.60;;;9.77;;
735;SDS011;352;48.626;9.238;2023-04-06T04:20:17;10.52;;;9.52;;
735;SDS011;352;48.626;9.238;2023-04-06T04:22:44;11.20;;;9.75;;
735;SDS011;352;48.626;9.238;2023-04-06T04:25:10;13.13;;;10.30;;
735;SDS011;352;48.626;9.238;2023-04-06T04:27:37;11.00;;;9.93;;
735;SDS011;352;48.626;9.238;2023-04-06T04:30:05;12.45;;;10.80;;
735;SDS011;352;48.626;9.238;2023-04-06T04:32:34;13.57;;;10.40;;
735;SDS011;352;48.626;9.238;2023-04-06T04:35:00;11.82;;;10.57;;
735;SDS011;352;48.626;9.238;2023-04-06T04:37:27;13.85;;;11.75;;
735;SDS011;352;48.626;9.238;2023-04-06T04:39:54;14.55;;;12.27;;
735;SDS011;352;48.626;9.238;2023-04-06T04:42:21;10.52;;;9.43;;
735;SDS011;352;48.626;9.238;2023-04-06T04:44:48;10.68;;;9.57;;
735;SDS011;352;48.626;9.238;2023-04-06T04:47:15;10.93;;;9.77;;
735;SDS011;352;48.626;9.238;2023-04-06T04:49:43;11.13;;;9.93;;
735;SDS011;352;48.626;9.238;2023-04-06T04:52:10;11.40;;;10.20;;
735;SDS011;352;48.626;9.238;2023-04-06T04:54:37;12.30;;;9.90;;
735;SDS011;352;48.626;9.238;2023-04-06T04:57:06;11.60;;;10.40;;
735;SDS011;352;48.626;9.238;2023-04-06T04:59:33;11.80;;;10.60;;
735;SDS011;352;48.626;9.238;2023-04-06T05:02:03;12.85;;;10.70;;
735;SDS011;352;48.626;9.238;2023-04-06T05:04:54;11.25;;;10.15;;
735;SDS011;352;48.626;9.238;2023-04-06T05:07:27;12.07;;;10.82;;
735;SDS011;352;48.626;9.238;2023-04-06T05:10:10;12.15;;;11.02;;
735;SDS011;352;48.626;9.238;2023-04-06T05:25:24;13.65;;;11.25;;
735;SDS011;352;48.626;9.238;2023-04-06T05:27:51;13.48;;;12.10;;
735;SDS011;352;48.626;9.238;2023-04-06T05:30:18;13.35;;;11.10;;
735;SDS011;352;48.626;9.238;2023-04-06T05:32:45;13.38;;;9.55;;
735;SDS011;352;48.626;9.238;2023-04-06T05:35:14;11.52;;;10.48;;
735;SDS011;352;48.626;9.238;2023-04-06T05:45:29;13.43;;;10.07;;
735;SDS011;352;48.626;9.238;2023-04-06T05:47:56;10.18;;;9.07;;
735;SDS011;352;48.626;9.238;2023-04-06T05:50:23;12.20;;;10.20;;
735;SDS011;352;48.626;9.238;2023-04-06T05:52:50;14.55;;;11.48;;
735;SDS011;352;48.626;9.238;2023-04-06T05:55:16;12.80;;;11.25;;
735;SDS011;352;48.626;9.238;2023-04-06T05:57:44;15.57;;;12.30;;
735;SDS011;352;48.626;9.238;2023-04-06T06:00:11;14.00;;;12.55;;
735;SDS011;352;48.626;9.238;2023-04-06T06:02:40;11.80;;;10.60;;
735;SDS011;352;48.626;9.238;2023-04-06T06:05:08;13.77;;;10.73;;
735;SDS011;352;48.626;9.238;2023-04-06T06:07:34;13.23;;;10.70;;
735;SDS011;352;48.626;9.238;2023-04-06T06:10:01;12.40;;;11.10;;
735;SDS011;352;48.626;9.238;2023-04-06T06:12:28;12.38;;;10.73;;
735;SDS011;352;48.626;9.238;2023-04-06T06:14:55;13.38;;;11.68;;
735;SDS011;352;48.626;9.238;2023-04-06T06:17:22;12.95;;;10.75;;
735;SDS011;352;48.626;9.238;2023-04-06T06:19:50;15.02;;;11.40;;
735;SDS011;352;48.626;9.238;2023-04-06T06:22:17;12.75;;;10.75;;
735;SDS011;352;48.626;9.238;2023-04-06T06:24:43;14.70;;;11.15;;
735;SDS011;352;48.626;9.238;2023-04-06T06:34:54;17.95;;;12.38;;
735;SDS011;352;48.626;9.238;2023-04-06T06:37:21;13.27;;;10.55;;
735;SDS011;352;48.626;9.238;2023-04-06T06:39:48;13.15;;;10.90;;
735;SDS011;352;48.626;9.238;2023-04-06T06:42:15;16.10;;;11.40;;
735;SDS011;352;48.626;9.238;2023-04-06T06:44:41;13.32;;;11.85;;
735;SDS011;352;48.626;9.238;2023-04-06T06:47:08;13.50;;;10.75;;
735;SDS011;352;48.626;9.238;2023-04-06T06:49:37;12.35;;;11.02;;
735;SDS011;352;48.626;9.238;2023-04-06T06:52:48;12.40;;;9.30;;
735;SDS011;352;48.626;9.238;2023-04-06T06:55:14;12.82;;;10.15;;
735;SDS011;352;48.626;9.238;2023-04-06T06:57:43;10.40;;;9.40;;
735;SDS011;352;48.626;9.238;2023-04-06T07:04:02;14.32;;;11.50;;
735;SDS011;352;48.626;9.238;2023-04-06T07:06:29;13.00;;;11.80;;
735;SDS011;352;48.626;9.238;2023-04-06T07:08:57;13.33;;;11.97;;
735;SDS011;352;48.626;9.238;2023-04-06T07:18:08;13.10;;;11.77;;
735;SDS011;352;48.626;9.238;2023-04-06T07:34:40;11.50;;;10.60;;
735;SDS011;352;48.626;9.238;2023-04-06T08:04:30;12.60;;;11.43;;
735;SDS011;352;48.626;9.238;2023-04-06T08:06:57;12.30;;;11.10;;
735;SDS011;352;48.626;9.238;2023-04-06T08:09:23;10.73;;;9.83;;
735;SDS011;352;48.626;9.238;2023-04-06T10:47:57;7.87;;;7.20;;
735;SDS011;352;48.626;9.238;2023-04-06T10:50:24;7.60;;;6.90;;
735;SDS011;352;48.626;9.238;2023-04-06T10:53:00;8.17;;;7.33;;
735;SDS011;352;48.626;9.238;2023-04-06T10:55:28;7.70;;;7.00;;
735;SDS011;352;48.626;9.238;2023-04-06T10:57:55;7.43;;;6.83;;
735;SDS011;352;48.626;9.238;2023-04-06T11:00:22;7.03;;;6.40;;
735;SDS011;352;48.626;9.238;2023-04-06T11:02:49;8.10;;;7.40;;
735;SDS011;352;48.626;9.238;2023-04-06T11:05:17;7.40;;;6.70;;
735;SDS011;352;48.626;9.238;2023-04-06T11:07:44;8.33;;;7.53;;
735;SDS011;352;48.626;9.238;2023-04-06T11:10:11;8.33;;;7.47;;
735;SDS011;352;48.626;9.238;2023-04-06T11:12:38;11.37;;;6.80;;
735;SDS011;352;48.626;9.238;2023-04-06T11:15:09;7.80;;;7.07;;
735;SDS011;352;48.626;9.238;2023-04-06T11:17:36;8.27;;;7.20;;
735;SDS011;352;48.626;9.238;2023-04-06T11:20:03;7.07;;;6.37;;
735;SDS011;352;48.626;9.238;2023-04-06T11:22:47;8.23;;;6.90;;
735;SDS011;352;48.626;9.238;2023-04-06T11:25:14;9.00;;;5.87;;
735;SDS011;352;48.626;9.238;2023-04-06T11:27:41;6.47;;;5.87;;
735;SDS011;352;48.626;9.238;2023-04-06T11:30:09;7.27;;;6.17;;
735;SDS011;352;48.626;9.238;2023-04-06T11:32:39;7.43;;;6.13;;
735;SDS011;352;48.626;9.238;2023-04-06T11:35:06;6.17;;;5.57;;
735;SDS011;352;48.626;9.238;2023-04-06T11:37:33;6.13;;;4.60;;
735;SDS011;352;48.626;9.238;2023-04-06T11:40:01;5.07;;;4.63;;
735;SDS011;352;48.626;9.238;2023-04-06T11:42:29;5.10;;;4.60;;
735;SDS011;352;48.626;9.238;2023-04-06T11:45:10;5.67;;;5.17;;
735;SDS011;352;48.626;9.238;2023-04-06T11:47:41;6.43;;;5.20;;
735;SDS011;352;48.626;9.238;2023-04-06T11:50:08;5.20;;;4.67;;
735;SDS011;352;48.626;9.238;2023-04-06T11:52:37;4.20;;;3.80;;
735;SDS011;352;48.626;9.238;2023-04-06T11:55:13;5.60;;;5.10;;
735;SDS011;352;48.626;9.238;2023-04-06T11:57:41;5.50;;;5.00;;
735;SDS011;352;48.626;9.238;2023-04-06T12:00:08;6.23;;;5.40;;
735;SDS011;352;48.626;9.238;2023-04-06T12:02:35;5.73;;;5.23;;
735;SDS011;352;48.626;9.238;2023-04-06T12:05:02;7.77;;;6.00;;
735;SDS011;352;48.626;9.238;2023-04-06T12:07:31;6.80;;;6.07;;
735;SDS011;352;48.626;9.238;2023-04-06T12:09:58;6.33;;;5.73;;
735;SDS011;352;48.626;9.238;2023-04-06T12:12:26;5.87;;;5.27;;
735;SDS011;352;48.626;9.238;2023-04-06T12:14:53;5.90;;;5.30;;
735;SDS011;352;48.626;9.238;2023-04-06T12:17:21;6.20;;;5.60;;
735;SDS011;352;48.626;9.238;2023-04-06T12:19:48;6.83;;;6.23;;
735;SDS011;352;48.626;9.238;2023-04-06T12:22:15;5.60;;;5.10;;
735;SDS011;352;48.626;9.238;2023-04-06T12:24:44;6.47;;;5.73;;
735;SDS011;352;48.626;9.238;2023-04-06T12:27:11;4.67;;;4.27;;
735;SDS011;352;48.626;9.238;2023-04-06T12:29:39;6.50;;;5.87;;
735;SDS011;352;48.626;9.238;2023-04-06T12:32:05;4.63;;;4.20;;
735;SDS011;352;48.626;9.238;2023-04-06T12:34:33;4.80;;;4.40;;
735;SDS011;352;48.626;9.238;2023-04-06T12:37:00;4.80;;;4.40;;
735;SDS011;352;48.626;9.238;2023-04-06T12:39:27;6.63;;;5.37;;
735;SDS011;352;48.626;9.238;2023-04-06T12:41:54;4.77;;;4.37;;
735;SDS011;352;48.626;9.238;2023-04-06T12:44:21;5.57;;;4.97;;
735;SDS011;352;48.626;9.238;2023-04-06T12:46:49;5.43;;;4.93;;
735;SDS011;352;48.626;9.238;2023-04-06T12:49:16;5.33;;;4.83;;
735;SDS011;352;48.626;9.238;2023-04-06T12:51:44;5.87;;;5.07;;
735;SDS011;352;48.626;9.238;2023-04-06T12:54:10;5.97;;;5.47;;
735;SDS011;352;48.626;9.238;2023-04-06T12:56:37;8.33;;;5.17;;
735;SDS011;352;48.626;9.238;2023-04-06T12:59:04;6.07;;;5.50;;
735;SDS011;352;48.626;9.238;2023-04-06T13:01:31;5.53;;;5.10;;
735;SDS011;352;48.626;9.238;2023-04-06T13:03:59;6.23;;;4.37;;
735;SDS011;352;48.626;9.238;2023-04-06T13:06:26;7.93;;;5.17;;
735;SDS011;352;48.626;9.238;2023-04-06T13:08:53;5.57;;;4.90;;
735;SDS011;352;48.626;9.238;2023-04-06T13:11:20;5.30;;;4.80;;
735;SDS011;352;48.626;9.238;2023-04-06T13:13:49;5.47;;;4.97;;
735;SDS011;352;48.626;9.238;2023-04-06T13:16:16;5.10;;;4.70;;
735;SDS011;352;48.626;9.238;2023-04-06T13:18:42;5.83;;;4.73;;
735;SDS011;352;48.626;9.238;2023-04-06T13:21:12;4.47;;;4.07;;
735;SDS011;352;48.626;9.238;2023-04-06T13:23:41;5.00;;;4.50;;
735;SDS011;352;48.626;9.238;2023-04-06T13:26:07;5.73;;;5.13;;
735;SDS011;352;48.626;9.238;2023-04-06T13:28:35;7.70;;;4.80;;
735;SDS011;352;48.626;9.238;2023-04-06T13:31:04;4.57;;;4.17;;
735;SDS011;352;48.626;9.238;2023-04-06T13:33:31;5.00;;;4.60;;
735;SDS011;352;48.626;9.238;2023-04-06T13:35:58;5.20;;;4.70;;
735;SDS011;352;48.626;9.238;2023-04-06T13:38:27;6.20;;;4.80;;
735;SDS011;352;48.626;9.238;2023-04-06T13:40:53;6.70;;;5.47;;
735;SDS011;352;48.626;9.238;2023-04-06T13:43:20;6.30;;;4.90;;
735;SDS011;352;48.626;9.238;2023-04-06T13:45:50;6.10;;;5.00;;
735;SDS011;352;48.626;9.238;2023-04-06T13:48:19;5.90;;;5.07;;
735;SDS011;352;48.626;9.238;2023-04-06T13:50:45;5.83;;;4.70;;
735;SDS011;352;48.626;9.238;2023-04-06T13:53:12;5.23;;;4.73;;
735;SDS011;352;48.626;9.238;2023-04-06T13:55:40;4.90;;;4.50;;
735;SDS011;352;48.626;9.238;2023-04-06T13:58:07;4.90;;;4.40;;
735;SDS011;352;48.626;9.238;2023-04-06T14:00:34;5.20;;;4.33;;
735;SDS011;352;48.626;9.238;2023-04-06T14:03:01;4.97;;;4.20;;
735;SDS011;352;48.626;9.238;2023-04-06T14:05:30;4.97;;;4.47;;
735;SDS011;352;48.626;9.238;2023-04-06T14:07:57;4.30;;;3.90;;
735;SDS011;352;48.626;9.238;2023-04-06T14:10:24;5.73;;;4.20;;
735;SDS011;352;48.626;9.238;2023-04-06T14:12:53;5.37;;;4.27;;
735;SDS011;352;48.626;9.238;2023-04-06T14:15:20;5.80;;;4.50;;
735;SDS011;352;48.626;9.238;2023-04-06T14:17:47;4.33;;;3.93;;
735;SDS011;352;48.626;9.238;2023-04-06T14:20:14;4.50;;;4.10;;
735;SDS011;352;48.626;9.238;2023-04-06T14:22:41;5.50;;;4.30;;
735;SDS011;352;48.626;9.238;2023-04-06T14:25:08;5.33;;;4.83;;
735;SDS011;352;48.626;9.238;2023-04-06T14:27:36;6.07;;;5.47;;
735;SDS011;352;48.626;9.238;2023-04-06T14:30:04;6.27;;;5.67;;
735;SDS011;352;48.626;9.238;2023-04-06T14:32:32;7.27;;;5.93;;
735;SDS011;352;48.626;9.238;2023-04-06T14:34:58;5.83;;;5.23;;
735;SDS011;352;48.626;9.238;2023-04-06T14:37:25;9.07;;;5.47;;
735;SDS011;352;48.626;9.238;2023-04-06T14:39:52;6.10;;;5.50;;
735;SDS011;352;48.626;9.238;2023-04-06T14:42:19;5.70;;;5.20;;
735;SDS011;352;48.626;9.238;2023-04-06T14:44:45;5.63;;;5.03;;
735;SDS011;352;48.626;9.238;2023-04-06T14:47:15;7.27;;;5.10;;
735;SDS011;352;48.626;9.238;2023-04-06T14:49:45;6.23;;;5.63;;
735;SDS011;352;48.626;9.238;2023-04-06T14:52:11;5.10;;;4.70;;
735;SDS011;352;48.626;9.238;2023-04-06T14:54:38;5.57;;;4.90;;
735;SDS011;352;48.626;9.238;2023-04-06T14:57:05;5.40;;;4.90;;
735;SDS011;352;48.626;9.238;2023-04-06T14:59:32;4.70;;;4.20;;
735;SDS011;352;48.626;9.238;2023-04-06T15:01:58;5.70;;;4.87;;
735;SDS011;352;48.626;9.238;2023-04-06T15:04:27;5.27;;;4.83;;
735;SDS011;352;48.626;9.238;2023-04-06T15:06:53;5.43;;;4.97;;
735;SDS011;352;48.626;9.238;2023-04-06T15:09:20;5.10;;;4.57;;
735;SDS011;352;48.626;9.238;2023-04-06T15:11:47;6.00;;;4.33;;
735;SDS011;352;48.626;9.238;2023-04-06T15:14:13;5.60;;;5.10;;
735;SDS011;352;48.626;9.238;2023-04-06T15:16:40;5.10;;;4.57;;
735;SDS011;352;48.626;9.238;2023-04-06T15:19:07;5.30;;;4.80;;
735;SDS011;352;48.626;9.238;2023-04-06T15:21:37;6.10;;;5.60;;
735;SDS011;352;48.626;9.238;2023-04-06T15:24:04;5.73;;;5.23;;
735;SDS011;352;48.626;9.238;2023-04-06T15:26:33;6.20;;;5.70;;
735;SDS011;352;48.626;9.238;2023-04-06T15:29:01;6.07;;;5.40;;
735;SDS011;352;48.626;9.238;2023-04-06T15:31:28;6.13;;;5.63;;
735;SDS011;352;48.626;9.238;2023-04-06T15:33:55;6.20;;;5.60;;
735;SDS011;352;48.626;9.238;2023-04-06T15:36:23;6.47;;;5.80;;
735;SDS011;352;48.626;9.238;2023-04-06T15:38:52;5.97;;;5.47;;
735;SDS011;352;48.626;9.238;2023-04-06T15:41:19;5.97;;;5.47;;
735;SDS011;352;48.626;9.238;2023-04-06T15:43:46;6.00;;;5.40;;
735;SDS011;352;48.626;9.238;2023-04-06T15:46:13;6.70;;;5.67;;
735;SDS011;352;48.626;9.238;2023-04-06T15:48:40;5.93;;;5.43;;
735;SDS011;352;48.626;9.238;2023-04-06T15:51:07;7.07;;;6.37;;
735;SDS011;352;48.626;9.238;2023-04-06T15:53:34;6.17;;;5.67;;
735;SDS011;352;48.626;9.238;2023-04-06T15:56:03;6.70;;;5.60;;
735;SDS011;352;48.626;9.238;2023-04-06T15:58:31;6.50;;;5.90;;
735;SDS011;352;48.626;9.238;2023-04-06T16:00:59;8.20;;;5.57;;
735;SDS011;352;48.626;9.238;2023-04-06T16:03:25;6.17;;;5.50;;
735;SDS011;352;48.626;9.238;2023-04-06T16:05:52;7.27;;;6.57;;
735;SDS011;352;48.626;9.238;2023-04-06T16:08:19;7.00;;;6.30;;
735;SDS011;352;48.626;9.238;2023-04-06T16:10:46;7.70;;;6.03;;
735;SDS011;352;48.626;9.238;2023-04-06T16:13:15;8.40;;;6.10;;
735;SDS011;352;48.626;9.238;2023-04-06T16:15:41;8.07;;;5.60;;
735;SDS011;352;48.626;9.238;2023-04-06T16:18:08;7.00;;;5.73;;
735;SDS011;352;48.626;9.238;2023-04-06T16:20:35;9.23;;;5.97;;
735;SDS011;352;48.626;9.238;2023-04-06T16:23:01;6.10;;;5.50;;
735;SDS011;352;48.626;9.238;2023-04-06T16:25:28;5.93;;;5.43;;
735;SDS011;352;48.626;9.238;2023-04-06T16:27:55;5.90;;;5.40;;
735;SDS011;352;48.626;9.238;2023-04-06T16:30:23;5.70;;;5.20;;
735;SDS011;352;48.626;9.238;2023-04-06T16:32:50;5.70;;;5.13;;
735;SDS011;352;48.626;9.238;2023-04-06T16:35:17;5.50;;;5.10;;
735;SDS011;352;48.626;9.238;2023-04-06T16:37:44;5.93;;;5.33;;
735;SDS011;352;48.626;9.238;2023-04-06T16:40:11;6.17;;;5.40;;
735;SDS011;352;48.626;9.238;2023-04-06T16:42:39;6.20;;;5.60;;
735;SDS011;352;48.626;9.238;2023-04-06T16:45:07;6.50;;;5.50;;
735;SDS011;352;48.626;9.238;2023-04-06T16:47:36;7.90;;;5.23;;
735;SDS011;352;48.626;9.238;2023-04-06T16:50:03;6.47;;;5.87;;
735;SDS011;352;48.626;9.238;2023-04-06T16:52:31;6.20;;;5.60;;
735;SDS011;352;48.626;9.238;2023-04-06T16:54:57;7.00;;;5.30;;
735;SDS011;352;48.626;9.238;2023-04-06T16:57:24;6.20;;;5.60;;
735;SDS011;352;48.626;9.238;2023-04-06T16:59:53;6.57;;;5.97;;
735;SDS011;352;48.626;9.238;2023-04-06T17:02:20;5.90;;;5.20;;
735;SDS011;352;48.626;9.238;2023-04-06T17:04:48;6.00;;;5.40;;
735;SDS011;352;48.626;9.238;2023-04-06T17:07:15;7.00;;;5.87;;
735;SDS011;352;48.626;9.238;2023-04-06T17:09:42;5.97;;;5.37;;
735;SDS011;352;48.626;9.238;2023-04-06T17:12:09;7.83;;;5.93;;
735;SDS011;352;48.626;9.238;2023-04-06T17:14:37;7.37;;;6.67;;
735;SDS011;352;48.626;9.238;2023-04-06T17:17:04;7.63;;;6.83;;
735;SDS011;352;48.626;9.238;2023-04-06T17:19:31;9.70;;;7.50;;
735;SDS011;352;48.626;9.238;2023-04-06T17:21:59;10.17;;;8.00;;
735;SDS011;352;48.626;9.238;2023-04-06T17:24:26;11.23;;;8.33;;
735;SDS011;352;48.626;9.238;2023-04-06T17:26:52;10.40;;;7.97;;
735;SDS011;352;48.626;9.238;2023-04-06T17:29:20;12.30;;;7.80;;
735;SDS011;352;48.626;9.238;2023-04-06T17:31:47;13.77;;;8.40;;
735;SDS011;352;48.626;9.238;2023-04-06T17:34:13;10.10;;;9.00;;
735;SDS011;352;48.626;9.238;2023-04-06T17:36:40;12.10;;;9.40;;
735;SDS011;352;48.626;9.238;2023-04-06T17:39:08;10.73;;;9.53;;
735;SDS011;352;48.626;9.238;2023-04-06T17:41:36;10.57;;;9.47;;
735;SDS011;352;48.626;9.238;2023-04-06T17:44:03;12.87;;;11.57;;
735;SDS011;352;48.626;9.238;2023-04-06T17:46:30;13.67;;;10.97;;
735;SDS011;352;48.626;9.238;2023-04-06T17:48:56;11.93;;;9.77;;
735;SDS011;352;48.626;9.238;2023-04-06T17:51:23;11.53;;;10.50;;
735;SDS011;352;48.626;9.238;2023-04-06T17:53:51;13.80;;;10.43;;
735;SDS011;352;48.626;9.238;2023-04-06T17:56:19;11.43;;;9.83;;
735;SDS011;352;48.626;9.238;2023-04-06T17:58:45;11.10;;;9.70;;
735;SDS011;352;48.626;9.238;2023-04-06T18:01:12;12.20;;;10.00;;
735;SDS011;352;48.626;9.238;2023-04-06T18:03:40;13.40;;;10.37;;
735;SDS011;352;48.626;9.238;2023-04-06T18:06:10;11.80;;;9.40;;
735;SDS011;352;48.626;9.238;2023-04-06T18:08:37;13.03;;;8.93;;
735;SDS011;352;48.626;9.238;2023-04-06T18:11:05;13.30;;;9.30;;
735;SDS011;352;48.626;9.238;2023-04-06T18:13:33;9.90;;;8.47;;
735;SDS011;352;48.626;9.238;2023-04-06T18:16:00;8.73;;;7.63;;
735;SDS011;352;48.626;9.238;2023-04-06T18:18:26;9.40;;;8.20;;
735;SDS011;352;48.626;9.238;2023-04-06T18:20:53;8.27;;;7.47;;
735;SDS011;352;48.626;9.238;2023-04-06T18:23:20;9.10;;;8.20;;
735;SDS011;352;48.626;9.238;2023-04-06T18:25:47;10.63;;;8.00;;
735;SDS011;352;48.626;9.238;2023-04-06T18:28:13;8.67;;;7.30;;
735;SDS011;352;48.626;9.238;2023-04-06T18:30:43;7.70;;;6.50;;
735;SDS011;352;48.626;9.238;2023-04-06T18:33:09;7.53;;;5.77;;
735;SDS011;352;48.626;9.238;2023-04-06T18:35:36;6.43;;;5.83;;
735;SDS011;352;48.626;9.238;2023-04-06T18:38:03;6.43;;;5.80;;
735;SDS011;352;48.626;9.238;2023-04-06T18:40:31;9.00;;;6.07;;
735;SDS011;352;48.626;9.238;2023-04-06T18:42:58;7.17;;;5.80;;
735;SDS011;352;48.626;9.238;2023-04-06T18:45:25;7.20;;;6.60;;
735;SDS011;352;48.626;9.238;2023-04-06T18:47:54;6.40;;;5.77;;
735;SDS011;352;48.626;9.238;2023-04-06T18:50:21;7.30;;;6.60;;
735;SDS011;352;48.626;9.238;2023-04-06T18:52:48;7.37;;;6.67;;
735;SDS011;352;48.626;9.238;2023-04-06T18:55:14;8.43;;;7.63;;
735;SDS011;352;48.626;9.238;2023-04-06T18:57:43;7.97;;;7.17;;
735;SDS011;352;48.626;9.238;2023-04-06T19:00:10;7.87;;;7.07;;
735;SDS011;352;48.626;9.238;2023-04-06T19:02:37;9.87;;;8.90;;
735;SDS011;352;48.626;9.238;2023-04-06T19:05:06;10.73;;;8.93;;
735;SDS011;352;48.626;9.238;2023-04-06T19:07:33;9.30;;;8.27;;
735;SDS011;352;48.626;9.238;2023-04-06T19:10:00;11.27;;;10.00;;
735;SDS011;352;48.626;9.238;2023-04-06T19:12:27;11.57;;;10.37;;
735;SDS011;352;48.626;9.238;2023-04-06T19:14:53;7.90;;;7.03;;
735;SDS011;352;48.626;9.238;2023-04-06T19:17:20;7.87;;;6.70;;
735;SDS011;352;48.626;9.238;2023-04-06T19:19:47;6.47;;;5.53;;
735;SDS011;352;48.626;9.238;2023-04-06T19:22:15;6.77;;;5.90;;
735;SDS011;352;48.626;9.238;2023-04-06T19:24:42;6.80;;;6.10;;
735;SDS011;352;48.626;9.238;2023-04-06T19:27:09;7.30;;;5.47;;
735;SDS011;352;48.626;9.238;2023-04-06T19:29:35;5.20;;;4.43;;
735;SDS011;352;48.626;9.238;2023-04-06T19:32:02;4.80;;;4.30;;
735;SDS011;352;48.626;9.238;2023-04-06T19:34:31;4.13;;;3.73;;